Time;durP1;ratioP1;P1;durP2;ratioP2;P2;SDS_P1;SDS_P2;PMS_P1;PMS_P2;Temp;Humidity;BMP_temperature;BMP_pressure;BME280_temperature;BME280_humidity;BME280_pressure;Samples;Min_cycle;Max_cycle;Signal;HPM_P1;HPM_P2
2021/03/23 00:00:53;;;;;;;0.10;0.10;;;;;;;0.02;76.32;100019.66;1782931;80;21115;-50
2021/03/23 00:03:58;;;;;;;0.10;0.10;;;;;;;-0.03;76.55;100023.81;1770401;80;21139;-48
2021/03/23 00:06:58;;;;;;;0.10;0.10;;;;;;;-0.05;76.60;100019.70;1787043;80;21444;-47
2021/03/23 00:09:59;;;;;;;0.00;0.00;;;;;;;-0.09;76.78;100016.64;1773150;79;21275;-47
2021/03/23 00:13:02;;;;;;;0.00;0.00;;;;;;;-0.10;76.81;100020.88;1771069;78;21194;-45
2021/03/23 00:16:02;;;;;;;0.08;0.08;;;;;;;-0.12;76.86;100022.99;1766631;80;21135;-44
2021/03/23 00:19:03;;;;;;;0.20;0.20;;;;;;;-0.15;77.13;100022.06;1751507;79;21179;-45
2021/03/23 00:21:57;;;;;;;0.10;0.10;;;;;;;-0.18;76.85;100020.64;1751418;80;21458;-45
2021/03/23 00:24:57;;;;;;;0.20;0.20;;;;;;;-0.23;76.73;100023.16;1760506;79;21178;-45
2021/03/23 00:27:57;;;;;;;3.25;1.00;;;;;;;-0.26;76.52;100022.27;1761140;81;21143;-45
2021/03/23 00:30:58;;;;;;;0.15;0.15;;;;;;;-0.30;76.52;100021.05;1808710;79;21123;-48
2021/03/23 00:34:02;;;;;;;;;;;;;;;-0.35;76.43;100023.56;1816928;79;21151;-45
2021/03/23 00:37:02;;;;;;;0.25;0.25;;;;;;;-0.38;76.45;100026.70;1752037;81;20253;-48
2021/03/23 00:40:04;;;;;;;0.90;0.90;;;;;;;-0.43;76.50;100023.31;1742168;80;21107;-48
2021/03/23 00:43:04;;;;;;;0.00;0.00;;;;;;;-0.44;76.61;100029.21;1778481;79;21171;-48
2021/03/23 00:46:04;;;;;;;0.00;0.00;;;;;;;-0.46;76.60;100025.92;1750917;80;21577;-48
2021/03/23 00:49:05;;;;;;;0.00;0.00;;;;;;;-0.45;76.66;100026.20;1748004;81;21229;-47
2021/03/23 00:52:07;;;;;;;0.10;0.10;;;;;;;-0.44;76.73;100018.47;1760371;79;21426;-48
2021/03/23 00:55:07;;;;;;;0.10;0.10;;;;;;;-0.43;76.60;100020.63;1762276;79;21167;-48
2021/03/23 00:58:07;;;;;;;1.45;0.37;;;;;;;-0.44;76.61;100018.47;1750330;81;21134;-48
2021/03/23 01:01:08;;;;;;;2.05;0.57;;;;;;;-0.42;76.67;100019.61;1759141;80;21119;-48
2021/03/23 01:04:09;;;;;;;0.10;0.10;;;;;;;-0.41;76.68;100012.38;1738457;82;21130;-48
2021/03/23 01:07:10;;;;;;;0.10;0.10;;;;;;;-0.38;76.75;100028.04;1767683;80;21146;-48
2021/03/23 01:10:11;;;;;;;0.15;0.15;;;;;;;-0.41;76.92;100024.45;1791674;79;21722;-48
2021/03/23 01:13:12;;;;;;;0.20;0.20;;;;;;;-0.41;77.10;100033.84;1789451;79;21135;-47
2021/03/23 01:16:12;;;;;;;0.42;0.42;;;;;;;-0.41;77.28;100031.16;1751484;80;21130;-47
2021/03/23 01:19:14;;;;;;;0.15;0.15;;;;;;;-0.41;77.42;100032.50;1751189;81;21115;-48
2021/03/23 01:22:15;;;;;;;0.10;0.10;;;;;;;-0.40;77.51;100035.48;1760533;79;21138;-48
2021/03/23 01:25:17;;;;;;;1.00;0.80;;;;;;;-0.39;77.58;100038.48;1760460;81;21245;-48
2021/03/23 01:28:18;;;;;;;0.10;0.10;;;;;;;-0.41;77.73;100042.72;1760338;81;21502;-48
2021/03/23 01:31:19;;;;;;;0.20;0.20;;;;;;;-0.40;77.75;100039.51;1796410;79;21632;-48
2021/03/23 01:34:20;;;;;;;0.10;0.10;;;;;;;-0.38;77.79;100036.09;1750483;81;21182;-48
2021/03/23 01:37:23;;;;;;;0.07;0.07;;;;;;;-0.36;77.84;100050.13;1749532;80;21186;-48
2021/03/23 01:40:28;;;;;;;0.20;0.20;;;;;;;-0.36;77.75;100040.20;1760332;80;21143;-47
2021/03/23 01:43:37;;;;;;;0.20;0.20;;;;;;;-0.34;77.68;100037.31;1760571;81;21164;-48
2021/03/23 01:46:46;;;;;;;0.10;0.10;;;;;;;-0.34;77.64;100044.02;1797593;79;21102;-48
2021/03/23 01:49:53;;;;;;;0.28;0.28;;;;;;;-0.33;77.54;100045.66;1757438;79;21549;-48
2021/03/23 01:53:02;;;;;;;0.00;0.00;;;;;;;-0.35;77.51;100045.86;1736676;82;21193;-48
2021/03/23 01:56:06;;;;;;;0.10;0.10;;;;;;;-0.35;77.43;100041.02;1783385;79;21138;-48
2021/03/23 01:59:06;;;;;;;0.10;0.10;;;;;;;-0.36;77.42;100044.75;1754185;81;21166;-48
2021/03/23 02:02:08;;;;;;;0.00;0.00;;;;;;;-0.36;77.36;100042.89;1767408;81;21410;-49
2021/03/23 02:05:12;;;;;;;0.10;0.10;;;;;;;-0.37;77.44;100048.46;1767284;80;21134;-47
2021/03/23 02:08:13;;;;;;;0.10;0.10;;;;;;;-0.39;77.42;100045.20;1766860;80;21154;-48
2021/03/23 02:11:13;;;;;;;0.10;0.10;;;;;;;-0.41;77.40;100048.09;1766726;81;21520;-48
2021/03/23 02:14:16;;;;;;;0.15;0.15;;;;;;;-0.40;77.26;100044.35;1747580;81;21158;-47
2021/03/23 02:17:34;;;;;;;1.92;0.53;;;;;;;-0.40;77.29;100043.53;1765876;79;21123;-48
2021/03/23 02:20:35;;;;;;;0.10;0.10;;;;;;;-0.42;77.32;100044.27;1766820;81;21114;-48
2021/03/23 02:23:47;;;;;;;0.10;0.10;;;;;;;-0.42;77.22;100041.58;1766999;81;21189;-48
2021/03/23 02:26:47;;;;;;;0.10;0.10;;;;;;;-0.45;77.34;100042.31;1759542;79;21036;-50
2021/03/23 02:29:47;;;;;;;0.00;0.00;;;;;;;-0.47;77.44;100047.10;1757647;81;21234;-48
2021/03/23 02:32:48;;;;;;;0.00;0.00;;;;;;;-0.48;77.47;100049.99;1736635;82;21154;-48
2021/03/23 02:35:58;;;;;;;0.33;0.33;;;;;;;-0.52;77.61;100052.30;1751068;80;36845;-48
2021/03/23 02:38:59;;;;;;;0.00;0.00;;;;;;;-0.54;77.72;100050.87;1766836;81;21149;-47
2021/03/23 02:42:00;;;;;;;0.10;0.10;;;;;;;-0.58;77.85;100051.80;1766773;80;21169;-47
2021/03/23 02:45:01;;;;;;;0.40;0.40;;;;;;;-0.61;77.88;100049.56;1766752;79;21674;-47
2021/03/23 02:48:02;;;;;;;0.20;0.20;;;;;;;-0.64;77.98;100051.34;1766287;81;21190;-47
2021/03/23 02:51:02;;;;;;;0.15;0.15;;;;;;;-0.67;78.10;100049.06;1764432;81;21134;-47
2021/03/23 02:54:04;;;;;;;0.10;0.10;;;;;;;-0.69;78.18;100054.67;1763077;79;21185;-47
2021/03/23 02:57:04;;;;;;;0.10;0.10;;;;;;;-0.70;78.18;100049.50;1762630;81;21150;-48
2021/03/23 03:00:05;;;;;;;8.55;0.45;;;;;;;-0.73;78.19;100046.73;1762098;79;21198;-48
2021/03/23 03:03:07;;;;;;;0.00;0.00;;;;;;;-0.74;78.16;100050.95;1733034;82;21151;-47
2021/03/23 03:06:10;;;;;;;;;;;;;;;-0.75;78.19;100052.83;1775571;79;21126;-47
2021/03/23 03:09:11;;;;;;;0.10;0.10;;;;;;;-0.76;78.10;100051.19;1787997;80;20253;-47
2021/03/23 03:12:14;;;;;;;0.00;0.00;;;;;;;-0.78;78.00;100047.08;1808552;79;21154;-47
2021/03/23 03:15:15;;;;;;;0.00;0.00;;;;;;;-0.80;77.92;100043.26;1810196;79;21651;-48
2021/03/23 03:18:16;;;;;;;0.00;0.00;;;;;;;-0.80;77.71;100049.15;1750747;81;21210;-48
2021/03/23 03:21:16;;;;;;;0.10;0.10;;;;;;;-0.81;77.51;100048.86;1750936;80;21562;-47
2021/03/23 03:24:18;;;;;;;0.20;0.20;;;;;;;-0.82;77.27;100041.83;1736319;79;21637;-48
2021/03/23 03:27:18;;;;;;;0.00;0.00;;;;;;;-0.85;77.01;100040.92;1733722;80;21185;-47
2021/03/23 03:30:32;;;;;;;0.10;0.10;;;;;;;-0.91;76.73;100040.75;1735245;80;21768;-48
2021/03/23 03:33:32;;;;;;;0.10;0.10;;;;;;;-0.97;76.34;100038.09;1778093;80;21174;-48
2021/03/23 03:36:37;;;;;;;0.53;0.53;;;;;;;-1.04;76.14;100044.81;1755389;80;21213;-48
2021/03/23 03:39:38;;;;;;;0.10;0.10;;;;;;;-1.11;76.06;100050.75;1760664;81;21146;-47
2021/03/23 03:42:38;;;;;;;0.10;0.10;;;;;;;-1.21;75.95;100051.69;1760628;81;21533;-47
2021/03/23 03:45:39;;;;;;;0.10;0.10;;;;;;;-1.28;75.88;100060.30;1750274;79;21162;-47
2021/03/23 03:48:39;;;;;;;0.10;0.10;;;;;;;-1.34;75.87;100063.28;1743523;82;21100;-47
2021/03/23 03:51:39;;;;;;;0.10;0.10;;;;;;;-1.43;75.83;100058.69;1762286;81;21138;-48
2021/03/23 03:54:40;;;;;;;1.17;0.75;;;;;;;-1.48;75.77;100058.98;1764671;79;21616;-47
2021/03/23 03:57:41;;;;;;;0.10;0.10;;;;;;;-1.54;75.72;100053.95;1770609;81;21130;-48
2021/03/23 04:00:42;;;;;;;0.00;0.00;;;;;;;-1.57;75.56;100060.56;1771894;80;21675;-47
2021/03/23 04:03:42;;;;;;;0.00;0.00;;;;;;;-1.58;75.44;100064.81;1791198;78;21483;-48
2021/03/23 04:06:45;;;;;;;0.00;0.00;;;;;;;-1.60;75.29;100063.66;1763803;81;21134;-48
2021/03/23 04:09:45;;;;;;;0.10;0.10;;;;;;;-1.62;75.26;100063.57;1791631;79;21181;-47
2021/03/23 04:12:46;;;;;;;0.00;0.00;;;;;;;-1.65;75.16;100059.98;1729957;82;21145;-48
2021/03/23 04:15:50;;;;;;;0.10;0.10;;;;;;;-1.67;75.09;100062.85;1784740;79;21173;-47
2021/03/23 04:18:50;;;;;;;0.10;0.10;;;;;;;-1.70;75.04;100065.95;1790591;79;21106;-48
2021/03/23 04:21:51;;;;;;;0.10;0.10;;;;;;;-1.72;74.98;100068.02;1791221;79;21118;-47
2021/03/23 04:24:52;;;;;;;0.10;0.10;;;;;;;-1.71;74.97;100070.17;1791565;80;21153;-47
2021/03/23 04:27:53;;;;;;;0.10;0.10;;;;;;;-1.70;74.94;100078.53;1791445;80;21163;-47
2021/03/23 04:30:53;;;;;;;0.10;0.10;;;;;;;-1.66;74.88;100077.06;1790368;79;21636;-47
2021/03/23 04:33:54;;;;;;;1.75;1.45;;;;;;;-1.61;74.81;100085.30;1791625;80;21114;-47
2021/03/23 04:36:55;;;;;;;0.10;0.10;;;;;;;-1.58;74.82;100083.56;1791322;78;21130;-48
2021/03/23 04:39:56;;;;;;;0.20;0.20;;;;;;;-1.50;74.34;100081.18;1791789;79;21194;-48
2021/03/23 04:42:56;;;;;;;0.10;0.10;;;;;;;-1.41;74.42;100084.77;1789452;79;21165;-47
2021/03/23 04:45:57;;;;;;;0.50;0.28;;;;;;;-1.33;74.21;100084.53;1813337;79;21130;-47
2021/03/23 04:48:57;;;;;;;0.10;0.10;;;;;;;-1.24;73.91;100088.31;1813565;79;21143;-48
2021/03/23 04:51:59;;;;;;;0.10;0.10;;;;;;;-1.16;73.70;100091.61;1790988;78;21119;-48
2021/03/23 04:55:00;;;;;;;0.00;0.00;;;;;;;-1.06;73.12;100088.48;1791233;78;21237;-47
2021/03/23 04:58:00;;;;;;;0.10;0.10;;;;;;;-0.95;72.19;100085.12;1791519;80;21233;-47
2021/03/23 05:01:02;;;;;;;0.10;0.10;;;;;;;-0.84;71.79;100098.41;1804505;78;21165;-47
2021/03/23 05:04:06;;;;;;;0.10;0.10;;;;;;;-0.75;71.53;100097.63;1822817;78;21155;-48
2021/03/23 05:07:07;;;;;;;0.10;0.10;;;;;;;-0.66;71.31;100100.38;1822098;78;21118;-47
2021/03/23 05:10:10;;;;;;;0.10;0.10;;;;;;;-0.56;70.45;100106.09;1823921;78;21114;-48
2021/03/23 05:13:11;;;;;;;0.00;0.00;;;;;;;-0.49;69.77;100105.55;1790078;78;21146;-47
2021/03/23 05:16:12;;;;;;;0.10;0.10;;;;;;;-0.41;70.28;100106.33;1782194;78;21562;-47
2021/03/23 05:19:14;;;;;;;0.00;0.00;;;;;;;-0.32;69.83;100107.20;1796036;78;21043;-47
2021/03/23 05:22:14;;;;;;;0.10;0.10;;;;;;;-0.25;67.93;100100.42;1788205;78;21631;-47
2021/03/23 05:25:15;;;;;;;0.10;0.10;;;;;;;-0.16;68.04;100103.69;1787531;78;21138;-47
2021/03/23 05:28:16;;;;;;;0.03;0.03;;;;;;;-0.07;67.56;100103.73;1793334;78;21573;-48
2021/03/23 05:31:16;;;;;;;0.10;0.10;;;;;;;0.02;67.75;100108.30;1781800;79;21114;-47
2021/03/23 05:34:19;;;;;;;0.00;0.00;;;;;;;0.12;67.89;100108.63;1811743;78;21451;-47
2021/03/23 05:37:19;;;;;;;4.08;0.42;;;;;;;0.23;66.32;100105.25;1781628;78;21162;-48
2021/03/23 05:40:30;;;;;;;0.13;0.13;;;;;;;0.33;67.15;100102.88;1792102;78;21182;-47
2021/03/23 05:43:59;;;;;;;0.10;0.10;;;;;;;0.42;66.51;100108.28;1780151;79;21149;-47
2021/03/23 05:47:01;;;;;;;0.10;0.10;;;;;;;0.53;65.20;100101.34;1777191;79;21410;-48
2021/03/23 05:50:21;;;;;;;0.00;0.00;;;;;;;0.66;63.95;100112.48;1786306;78;21219;-47
2021/03/23 05:53:27;;;;;;;0.10;0.10;;;;;;;0.74;63.25;100110.03;1790331;80;21146;-47
2021/03/23 05:56:27;;;;;;;0.72;0.72;;;;;;;0.82;63.12;100113.27;1776580;79;21193;-47
2021/03/23 05:59:49;;;;;;;0.10;0.10;;;;;;;0.93;62.84;100117.59;1763417;78;21455;-48
2021/03/23 06:03:09;;;;;;;0.10;0.10;;;;;;;1.04;61.18;100112.82;1787298;80;21126;-47
2021/03/23 06:06:50;;;;;;;0.03;0.03;;;;;;;1.13;60.77;100108.76;1768827;79;21110;-47
2021/03/23 06:09:50;;;;;;;0.10;0.10;;;;;;;1.22;60.78;100106.06;1762232;80;21098;-47
2021/03/23 06:13:26;;;;;;;0.10;0.10;;;;;;;1.36;61.27;100105.39;1764812;78;21135;-47
2021/03/23 06:16:53;;;;;;;0.00;0.00;;;;;;;1.46;61.75;100107.53;1768433;80;21169;-47
2021/03/23 06:20:26;;;;;;;0.10;0.10;;;;;;;1.66;60.19;100109.95;1744079;81;21130;-47
2021/03/23 06:23:57;;;;;;;0.10;0.10;;;;;;;1.68;56.84;100112.72;1715619;82;21126;-47
2021/03/23 06:27:10;;;;;;;0.23;0.23;;;;;;;1.64;58.07;100113.40;1726008;82;21133;-47
2021/03/23 06:30:54;;;;;;;0.50;0.50;;;;;;;1.81;57.09;100119.78;1720621;82;21166;-47
2021/03/23 06:33:54;;;;;;;0.00;0.00;;;;;;;1.95;57.41;100123.08;1725491;82;21586;-47
2021/03/23 06:36:56;;;;;;;0.00;0.00;;;;;;;2.07;56.43;100117.19;1718600;80;21142;-47
2021/03/23 06:39:57;;;;;;;0.00;0.00;;;;;;;2.17;55.94;100125.24;1787124;79;21112;-47
2021/03/23 06:43:00;;;;;;;0.20;0.20;;;;;;;2.31;55.49;100129.38;1733904;82;21143;-47
2021/03/23 06:48:50;;;;;;;0.08;0.08;;;;;;;2.45;54.18;100121.36;1879757;76;28907;-45
2021/03/23 06:52:01;;;;;;;0.03;0.03;;;;;;;2.41;53.09;100114.78;1848294;77;21099;-47
2021/03/23 06:55:26;;;;;;;0.10;0.10;;;;;;;2.45;53.03;100122.71;1831724;77;21201;-49
2021/03/23 06:58:34;;;;;;;0.10;0.10;;;;;;;2.64;53.52;100118.53;1843272;77;21128;-48
2021/03/23 07:01:37;;;;;;;0.00;0.00;;;;;;;2.83;51.76;100120.05;1796062;78;21641;-48
2021/03/23 07:04:43;;;;;;;0.10;0.10;;;;;;;2.94;51.82;100113.83;1783287;80;21144;-48
2021/03/23 07:08:03;;;;;;;0.08;0.08;;;;;;;3.05;50.04;100115.39;1803319;78;21452;-46
2021/03/23 07:11:12;;;;;;;0.00;0.00;;;;;;;3.27;50.78;100114.23;1865576;76;29153;-46
2021/03/23 07:14:36;;;;;;;0.08;0.08;;;;;;;3.23;48.07;100120.62;1825134;78;21107;-46
2021/03/23 07:17:36;;;;;;;0.00;0.00;;;;;;;3.20;49.21;100115.70;1788572;80;21178;-46
2021/03/23 07:20:45;;;;;;;0.20;0.20;;;;;;;3.08;45.79;100112.21;1745103;80;21106;-46
2021/03/23 07:23:49;;;;;;;0.30;0.30;;;;;;;2.98;47.34;100114.98;1789102;79;21155;-46
2021/03/23 07:27:09;;;;;;;0.00;0.00;;;;;;;3.07;49.75;100108.70;1788257;78;21469;-46
2021/03/23 07:30:35;;;;;;;0.10;0.10;;;;;;;3.23;48.76;100120.62;1756922;81;21217;-46
2021/03/23 07:33:47;;;;;;;0.00;0.00;;;;;;;3.27;44.84;100120.45;1785415;80;21141;-46
2021/03/23 07:37:13;;;;;;;0.15;0.15;;;;;;;3.30;47.88;100121.31;1761372;80;21145;-46
2021/03/23 07:40:41;;;;;;;0.10;0.10;;;;;;;3.57;47.22;100128.86;1788148;78;21118;-46
2021/03/23 07:43:50;;;;;;;0.00;0.00;;;;;;;3.70;46.64;100119.09;1767041;80;21123;-46
2021/03/23 07:46:56;;;;;;;0.10;0.10;;;;;;;3.87;46.55;100118.60;1764891;80;21118;-43
2021/03/23 07:50:12;;;;;;;0.10;0.10;;;;;;;4.12;45.24;100113.35;1788544;80;21138;-43
2021/03/23 07:53:43;;;;;;;0.00;0.00;;;;;;;4.20;44.27;100115.64;1781771;80;21145;-44
2021/03/23 07:57:06;;;;;;;0.00;0.00;;;;;;;4.16;42.50;100128.03;1754031;80;21527;-43
2021/03/23 08:00:17;;;;;;;;;;;;;;;4.06;41.81;100121.10;1742605;81;21458;-46
2021/03/23 08:04:06;;;;;;;0.03;0.03;;;;;;;4.02;43.83;100117.23;1781300;79;20254;-44
2021/03/23 08:07:27;;;;;;;0.00;0.00;;;;;;;4.18;43.39;100123.71;1789505;78;21175;-44
2021/03/23 08:10:51;;;;;;;0.00;0.00;;;;;;;3.93;41.74;100113.28;1762038;79;21134;-43
2021/03/23 08:14:22;;;;;;;0.03;0.03;;;;;;;3.75;45.34;100115.67;1763038;80;21193;-46
2021/03/23 08:17:57;;;;;;;0.00;0.00;;;;;;;3.85;43.02;100117.20;1765907;81;21132;-48
2021/03/23 08:21:26;;;;;;;0.25;0.25;;;;;;;3.62;42.53;100120.84;1736208;80;21134;-44
2021/03/23 08:25:03;;;;;;;0.00;0.00;;;;;;;3.56;44.48;100119.09;1765155;81;21118;-43
2021/03/23 08:28:38;;;;;;;0.00;0.00;;;;;;;3.63;42.04;100117.89;1764983;81;21149;-46
2021/03/23 08:32:01;;;;;;;0.00;0.00;;;;;;;3.59;43.26;100119.98;1772453;79;21647;-43
2021/03/23 08:35:31;;;;;;;0.20;0.20;;;;;;;3.70;42.31;100112.34;1765514;79;21222;-46
2021/03/23 08:38:49;;;;;;;0.00;0.00;;;;;;;3.90;42.87;100113.78;1796676;79;21117;-46
2021/03/23 08:42:19;;;;;;;0.10;0.10;;;;;;;3.76;42.13;100101.94;1783566;79;21592;-46
2021/03/23 08:45:34;;;;;;;0.10;0.10;;;;;;;3.57;41.79;100105.36;1791142;79;21170;-49
2021/03/23 08:48:56;;;;;;;0.00;0.00;;;;;;;3.82;41.65;100103.65;1736865;80;21170;-49
2021/03/23 08:51:58;;;;;;;0.10;0.10;;;;;;;3.94;40.99;100104.13;1765449;79;21082;-48
2021/03/23 08:54:58;;;;;;;0.00;0.00;;;;;;;3.85;42.16;100104.50;1765306;81;21446;-46
2021/03/23 08:58:14;;;;;;;0.10;0.10;;;;;;;3.99;43.46;100102.86;1786556;79;21573;-43
2021/03/23 09:01:46;;;;;;;0.33;0.20;;;;;;;4.25;41.64;100102.73;1780223;79;21122;-44
2021/03/23 09:05:02;;;;;;;0.15;0.15;;;;;;;4.53;45.42;100122.13;1792801;79;21123;-43
2021/03/23 09:08:33;;;;;;;0.00;0.00;;;;;;;3.17;52.10;100135.09;1796875;79;21530;-46
2021/03/23 09:12:00;;;;;;;0.00;0.00;;;;;;;2.40;47.69;100123.94;1704547;82;21148;-46
2021/03/23 09:15:23;;;;;;;0.00;0.00;;;;;;;2.07;48.23;100119.89;1746094;80;21294;-46
2021/03/23 09:18:29;;;;;;;0.00;0.00;;;;;;;2.12;48.85;100115.97;1765943;79;21010;-46
2021/03/23 09:21:30;;;;;;;0.10;0.10;;;;;;;2.33;47.15;100108.39;1771964;79;21126;-43
2021/03/23 09:24:42;;;;;;;0.00;0.00;;;;;;;2.48;46.17;100108.75;1783181;80;21196;-46
2021/03/23 09:28:00;;;;;;;0.00;0.00;;;;;;;2.70;45.96;100102.77;1757263;80;21123;-46
2021/03/23 09:31:08;;;;;;;0.10;0.10;;;;;;;2.96;44.06;100100.89;1749678;80;21577;-43
2021/03/23 09:34:10;;;;;;;0.10;0.10;;;;;;;3.27;43.98;100089.39;1749718;80;21142;-43
2021/03/23 09:37:58;;;;;;;0.57;0.57;;;;;;;3.44;42.50;100084.86;1715114;81;21134;-43
2021/03/23 09:41:06;;;;;;;0.10;0.10;;;;;;;3.39;42.37;100093.41;1780077;79;21689;-43
2021/03/23 09:44:15;;;;;;;0.05;0.05;;;;;;;3.25;42.62;100096.91;1769390;80;21159;-43
2021/03/23 09:47:48;;;;;;;0.20;0.20;;;;;;;3.27;42.41;100096.14;1762270;80;21170;-46
2021/03/23 09:51:03;;;;;;;0.10;0.10;;;;;;;3.33;41.44;100089.77;1789786;78;21197;-46
2021/03/23 09:54:04;;;;;;;0.10;0.10;;;;;;;3.36;40.95;100093.36;1741810;81;21127;-47
2021/03/23 09:57:10;;;;;;;0.05;0.05;;;;;;;3.38;39.86;100087.70;1773708;80;21129;-46
2021/03/23 10:00:22;;;;;;;0.13;0.13;;;;;;;3.28;41.64;100088.85;1807161;78;21139;-44
2021/03/23 10:03:41;;;;;;;0.10;0.10;;;;;;;3.16;40.47;100087.53;1787568;80;21149;-43
2021/03/23 10:06:56;;;;;;;0.00;0.00;;;;;;;3.15;39.94;100083.20;1771665;78;21681;-47
2021/03/23 10:09:55;;;;;;;0.10;0.10;;;;;;;3.49;42.44;100077.89;1787562;78;21807;-49
2021/03/23 10:12:56;;;;;;;0.10;0.10;;;;;;;3.91;40.19;100077.56;1775078;80;21598;-44
2021/03/23 10:16:00;;;;;;;0.30;0.20;;;;;;;4.16;39.80;100078.00;1767831;79;21085;-44
2021/03/23 10:19:00;;;;;;;0.10;0.10;;;;;;;4.31;35.94;100083.64;1768856;80;21167;-46
2021/03/23 10:22:00;;;;;;;0.00;0.00;;;;;;;3.96;33.52;100085.25;1756635;80;21129;-44
2021/03/23 10:25:03;;;;;;;0.10;0.10;;;;;;;3.50;37.22;100083.61;1768729;79;21245;-46
2021/03/23 10:28:10;;;;;;;0.15;0.15;;;;;;;3.18;37.02;100084.87;1768961;81;21180;-46
2021/03/23 10:31:15;;;;;;;0.20;0.20;;;;;;;3.07;40.58;100081.70;1746955;81;21423;-43
2021/03/23 10:34:23;;;;;;;0.00;0.00;;;;;;;3.23;40.56;100073.37;1768900;80;21140;-46
2021/03/23 10:37:27;;;;;;;0.00;0.00;;;;;;;3.57;40.68;100066.18;1762912;80;21137;-44
2021/03/23 10:40:42;;;;;;;0.30;0.30;;;;;;;3.82;40.25;100085.27;1767463;79;21085;-46
2021/03/23 10:43:46;;;;;;;0.00;0.00;;;;;;;3.53;40.80;100066.91;1767803;81;21159;-43
2021/03/23 10:46:50;;;;;;;0.28;0.28;;;;;;;3.09;43.13;100070.64;1763223;81;21097;-43
2021/03/23 10:49:52;;;;;;;0.10;0.10;;;;;;;2.86;43.75;100071.00;1768561;80;21121;-46
2021/03/23 10:52:53;;;;;;;0.05;0.05;;;;;;;2.87;43.78;100074.00;1768640;80;20990;-43
2021/03/23 10:55:56;;;;;;;0.00;0.00;;;;;;;2.98;44.50;100071.79;1768672;80;21156;-49
2021/03/23 10:59:12;;;;;;;;;;;;;;;3.29;42.00;100066.17;1771460;80;21165;-43
2021/03/23 11:02:30;;;;;;;0.00;0.00;;;;;;;3.68;42.95;100075.28;1738473;82;20467;-46
2021/03/23 11:05:29;;;;;;;0.00;0.00;;;;;;;4.04;45.31;100077.27;1750039;79;21125;-43
2021/03/23 11:08:30;;;;;;;0.00;0.00;;;;;;;3.72;46.75;100076.45;1768520;81;20974;-43
2021/03/23 11:11:31;;;;;;;0.00;0.00;;;;;;;3.23;48.63;100072.02;1765703;79;21166;-43
2021/03/23 11:14:31;;;;;;;0.00;0.00;;;;;;;2.89;49.66;100062.41;1755072;80;21158;-44
2021/03/23 11:17:32;;;;;;;0.10;0.10;;;;;;;2.87;49.83;100047.02;1732921;82;21149;-46
2021/03/23 11:20:38;;;;;;;0.08;0.08;;;;;;;3.13;46.69;100051.03;1734845;79;21174;-46
2021/03/23 11:23:48;;;;;;;0.10;0.10;;;;;;;3.27;45.76;100046.18;1758176;80;21175;-43
2021/03/23 11:26:49;;;;;;;0.10;0.10;;;;;;;3.33;43.71;100033.59;1768088;79;21099;-46
2021/03/23 11:29:49;;;;;;;0.00;0.00;;;;;;;3.27;45.21;100034.03;1794182;79;21170;-43
2021/03/23 11:32:50;;;;;;;0.00;0.00;;;;;;;3.32;44.48;100034.66;1747068;81;21588;-46
2021/03/23 11:35:53;;;;;;;0.00;0.00;;;;;;;3.45;44.82;100032.46;1762735;79;21170;-46
2021/03/23 11:38:53;;;;;;;0.40;0.40;;;;;;;3.45;43.45;100041.91;1763021;81;21176;-46
2021/03/23 11:42:16;;;;;;;0.03;0.03;;;;;;;3.26;44.69;100041.83;1763126;79;21182;-46
2021/03/23 11:45:37;;;;;;;0.10;0.10;;;;;;;3.08;44.10;100060.91;1755711;80;21114;-44
2021/03/23 11:48:43;;;;;;;0.37;0.28;;;;;;;3.05;45.26;100070.31;1730530;81;21456;-46
2021/03/23 11:51:47;;;;;;;0.00;0.00;;;;;;;3.12;44.60;100070.19;1751597;80;21474;-43
2021/03/23 11:54:49;;;;;;;0.05;0.05;;;;;;;3.12;44.74;100066.95;1777231;80;21150;-43
2021/03/23 11:57:52;;;;;;;0.37;0.37;;;;;;;3.11;45.87;100073.93;1781235;80;21561;-43
2021/03/23 12:00:53;;;;;;;0.10;0.10;;;;;;;3.11;47.31;100082.03;1759504;80;21118;-46
2021/03/23 12:03:54;;;;;;;0.47;0.47;;;;;;;3.01;52.64;100086.16;1765138;80;21375;-43
2021/03/23 12:07:22;;;;;;;0.10;0.10;;;;;;;2.72;55.35;100089.84;1768818;80;21548;-43
2021/03/23 12:10:34;;;;;;;0.33;0.33;;;;;;;2.42;56.91;100089.44;1783851;79;21138;-46
2021/03/23 12:14:01;;;;;;;2.67;0.42;;;;;;;2.20;58.72;100091.08;1752605;79;21157;-43
2021/03/23 12:17:15;;;;;;;0.10;0.10;;;;;;;2.10;59.96;100084.91;1783665;79;21128;-43
2021/03/23 12:20:20;;;;;;;1.20;0.45;;;;;;;2.02;60.90;100080.68;1766893;80;21157;-46
2021/03/23 12:23:22;;;;;;;0.10;0.10;;;;;;;2.05;61.22;100091.52;1754646;81;21146;-46
2021/03/23 12:26:22;;;;;;;0.10;0.10;;;;;;;2.18;60.04;100087.78;1779231;79;21147;-47
2021/03/23 12:29:24;;;;;;;0.23;0.23;;;;;;;2.47;59.12;100096.83;1764372;81;21130;-43
2021/03/23 12:32:25;;;;;;;0.00;0.00;;;;;;;2.68;61.01;100119.19;1768215;80;21448;-43
2021/03/23 12:35:27;;;;;;;0.20;0.20;;;;;;;2.45;61.28;100118.66;1767071;80;21161;-47
2021/03/23 12:38:27;;;;;;;0.10;0.10;;;;;;;2.09;62.18;100111.58;1772580;80;27451;-43
2021/03/23 12:41:38;;;;;;;0.00;0.00;;;;;;;1.82;62.62;100109.81;1763281;79;21185;-44
2021/03/23 12:44:39;;;;;;;0.00;0.00;;;;;;;1.56;63.23;100101.08;1789300;79;21110;-46
2021/03/23 12:47:41;;;;;;;0.10;0.10;;;;;;;1.33;64.64;100100.44;1795248;79;21146;-45
2021/03/23 12:50:42;;;;;;;0.00;0.00;;;;;;;1.19;64.96;100101.14;1803434;79;21130;-44
2021/03/23 12:53:43;;;;;;;0.10;0.10;;;;;;;1.13;65.20;100097.99;1748922;82;21154;-43
2021/03/23 12:56:43;;;;;;;0.10;0.10;;;;;;;1.11;65.14;100097.39;1777753;79;21496;-43
2021/03/23 12:59:43;;;;;;;0.40;0.40;;;;;;;1.15;64.29;100102.63;1798401;79;21126;-43
2021/03/23 13:02:44;;;;;;;0.00;0.00;;;;;;;1.22;63.68;100098.52;1787339;79;21129;-44
2021/03/23 13:05:44;;;;;;;0.10;0.10;;;;;;;1.35;63.26;100085.41;1793370;78;21114;-43
2021/03/23 13:08:45;;;;;;;0.10;0.10;;;;;;;1.53;63.21;100081.31;1794330;79;21146;-44
2021/03/23 13:11:51;;;;;;;0.00;0.00;;;;;;;1.78;61.87;100082.53;1788866;78;21449;-44
2021/03/23 13:14:52;;;;;;;1.02;0.95;;;;;;;2.05;61.14;100085.63;1776815;79;21153;-43
2021/03/23 13:17:52;;;;;;;0.13;0.13;;;;;;;2.01;60.37;100095.22;1799714;78;21101;-43
2021/03/23 13:20:56;;;;;;;0.00;0.00;;;;;;;1.72;62.09;100093.67;1798723;78;21190;-43
2021/03/23 13:24:00;;;;;;;0.00;0.00;;;;;;;1.43;62.59;100087.77;1771801;79;21629;-44
2021/03/23 13:27:03;;;;;;;0.10;0.10;;;;;;;1.27;64.13;100077.94;1795551;79;21122;-44
2021/03/23 13:30:08;;;;;;;0.05;0.05;;;;;;;1.29;64.47;100085.27;1797281;78;21110;-44
2021/03/23 13:33:09;;;;;;;0.05;0.05;;;;;;;1.45;63.23;100076.26;1754918;81;21145;-44
2021/03/23 13:36:13;;;;;;;0.53;0.47;;;;;;;1.53;62.76;100077.27;1792882;79;21134;-42
2021/03/23 13:39:22;;;;;;;0.08;0.08;;;;;;;1.55;63.79;100081.09;1786250;80;21161;-43
2021/03/23 13:42:45;;;;;;;0.10;0.10;;;;;;;1.54;64.76;100084.32;1882581;76;29533;-43
2021/03/23 13:46:06;;;;;;;0.70;0.17;;;;;;;1.43;65.34;100085.08;1777696;80;21549;-43
2021/03/23 13:49:09;;;;;;;0.10;0.10;;;;;;;1.46;65.85;100085.47;1840461;77;26289;-43
2021/03/23 13:52:11;;;;;;;0.00;0.00;;;;;;;1.56;66.40;100084.92;1832726;77;21154;-45
2021/03/23 13:55:31;;;;;;;0.10;0.10;;;;;;;1.65;65.00;100088.91;1822862;77;21640;-46
2021/03/23 13:58:34;;;;;;;0.10;0.10;;;;;;;1.74;63.76;100084.03;1823050;77;21426;-45
2021/03/23 14:01:34;;;;;;;0.00;0.00;;;;;;;1.79;62.66;100080.65;1822491;77;21134;-46
2021/03/23 14:04:35;;;;;;;0.00;0.00;;;;;;;1.89;61.04;100074.17;1776491;79;21158;-45
2021/03/23 14:07:43;;;;;;;0.08;0.08;;;;;;;2.10;60.91;100080.86;1772023;79;21209;-46
2021/03/23 14:10:36;;;;;;;0.10;0.10;;;;;;;2.29;60.71;100086.98;1782360;79;21134;-45
2021/03/23 14:13:37;;;;;;;0.10;0.10;;;;;;;2.46;61.49;100074.98;1773593;79;21130;-44
2021/03/23 14:16:37;;;;;;;0.10;0.10;;;;;;;2.47;61.31;100082.00;1769072;80;21146;-44
2021/03/23 14:19:38;;;;;;;2.45;1.10;;;;;;;2.34;60.80;100101.94;1769385;81;21145;-43
2021/03/23 14:22:40;;;;;;;0.10;0.10;;;;;;;1.99;62.42;100105.94;1769572;81;21181;-43
2021/03/23 14:25:48;;;;;;;0.10;0.10;;;;;;;1.62;62.45;100112.27;1769530;81;21122;-43
2021/03/23 14:28:53;;;;;;;0.68;0.68;;;;;;;1.34;63.48;100114.73;1772104;79;21130;-43
2021/03/23 14:31:53;;;;;;;0.10;0.10;;;;;;;1.08;63.19;100126.11;1768854;79;21641;-43
2021/03/23 14:34:54;;;;;;;1.30;0.90;;;;;;;0.82;63.87;100126.71;1769550;79;21154;-43
2021/03/23 14:37:57;;;;;;;0.30;0.30;;;;;;;0.59;65.30;100126.02;1769469;81;21158;-43
2021/03/23 14:41:03;;;;;;;0.10;0.10;;;;;;;0.36;67.87;100130.66;1811818;78;21574;-43